createdAt,value
2017-11-21T00:00:10.771Z,1006.7
2017-11-21T00:01:10.883Z,1006.68
2017-11-21T00:02:10.802Z,1006.74
2017-11-21T00:03:10.820Z,1006.71
2017-11-21T00:04:10.833Z,1006.68
2017-11-21T00:06:10.884Z,1006.63
2017-11-21T00:07:10.880Z,1006.64
2017-11-21T00:08:10.900Z,1006.62
2017-11-21T00:09:10.914Z,1006.56
2017-11-21T00:10:10.932Z,1006.58
2017-11-21T00:11:10.949Z,1006.54
2017-11-21T00:12:10.968Z,1006.53
2017-11-21T00:13:10.984Z,1006.51
2017-11-21T00:14:10.994Z,1006.46
2017-11-21T00:15:11.015Z,1006.47
2017-11-21T00:16:11.033Z,1006.48
2017-11-21T00:17:11.046Z,1006.44
2017-11-21T00:18:11.070Z,1006.44
2017-11-21T00:19:11.083Z,1006.44
2017-11-21T00:20:11.096Z,1006.41
2017-11-21T00:22:11.129Z,1006.35
2017-11-21T00:23:11.141Z,1006.33
2017-11-21T00:24:11.161Z,1006.33
2017-11-21T00:25:11.173Z,1006.33
2017-11-21T00:26:11.195Z,1006.34
2017-11-21T00:27:11.206Z,1006.34
2017-11-21T00:28:11.227Z,1006.33
2017-11-21T00:29:11.245Z,1006.36
2017-11-21T00:30:11.261Z,1006.38
2017-11-21T00:31:11.277Z,1006.36
2017-11-21T00:32:11.291Z,1006.36
2017-11-21T00:33:11.312Z,1006.36
2017-11-21T00:34:11.329Z,1006.33
2017-11-21T00:35:11.341Z,1006.35
2017-11-21T00:36:11.353Z,1006.33
2017-11-21T00:38:11.391Z,1006.33
2017-11-21T00:39:11.401Z,1006.33
2017-11-21T00:40:11.439Z,1006.4
2017-11-21T00:41:11.433Z,1006.42
2017-11-21T00:42:11.457Z,1006.44
2017-11-21T00:43:11.472Z,1006.42
2017-11-21T00:44:11.487Z,1006.45
2017-11-21T00:45:11.503Z,1006.39
2017-11-21T00:46:11.518Z,1006.43
2017-11-21T00:47:11.537Z,1006.39
2017-11-21T00:48:11.551Z,1006.42
2017-11-21T00:49:11.569Z,1006.39
2017-11-21T00:50:11.585Z,1006.39
2017-11-21T00:51:11.603Z,1006.37
2017-11-21T00:53:11.639Z,1006.39
2017-11-21T00:54:11.655Z,1006.4
2017-11-21T00:55:11.666Z,1006.42
2017-11-21T00:56:11.692Z,1006.35
2017-11-21T00:57:11.695Z,1006.35
2017-11-21T00:58:11.717Z,1006.32
2017-11-21T00:59:11.726Z,1006.32
2017-11-21T01:00:11.749Z,1006.34
2017-11-21T01:01:11.764Z,1006.32
2017-11-21T01:02:11.777Z,1006.24
2017-11-21T01:03:11.801Z,1006.22
2017-11-21T01:04:11.814Z,1006.24
2017-11-21T01:05:11.833Z,1006.22
2017-11-21T01:06:11.851Z,1006.24
2017-11-21T01:07:11.856Z,1006.24
2017-11-21T01:08:11.878Z,1006.23
2017-11-21T01:09:11.896Z,1006.24
2017-11-21T01:10:11.915Z,1006.21
2017-11-21T01:11:11.921Z,1006.17
2017-11-21T01:12:11.942Z,1006.2
2017-11-21T01:13:11.958Z,1006.15
2017-11-21T01:14:11.985Z,1006.16
2017-11-21T01:15:11.991Z,1006.11
2017-11-21T01:16:12.004Z,1006.12
2017-11-21T01:17:12.018Z,1006.11
2017-11-21T01:18:12.041Z,1006.08
2017-11-21T01:19:12.058Z,1006.08
2017-11-21T01:20:12.097Z,1006.08
2017-11-21T01:21:12.096Z,1006.07
2017-11-21T01:22:12.104Z,1006.1
2017-11-21T01:23:12.116Z,1006.07
2017-11-21T01:25:12.152Z,1006.1
2017-11-21T01:26:12.172Z,1006.12
2017-11-21T01:27:12.185Z,1006.12
2017-11-21T01:28:12.202Z,1006.05
2017-11-21T01:29:12.223Z,1006.07
2017-11-21T01:30:12.232Z,1006.07
2017-11-21T01:31:12.249Z,1006.08
2017-11-21T01:32:12.265Z,1006.04
2017-11-21T01:33:12.282Z,1006.05
2017-11-21T01:34:12.298Z,1006.03
2017-11-21T01:35:12.312Z,1006
2017-11-21T01:36:12.332Z,1005.99
2017-11-21T01:37:12.349Z,1005.95
2017-11-21T01:38:12.364Z,1005.97
2017-11-21T01:39:12.384Z,1005.99
2017-11-21T01:41:12.414Z,1005.99
2017-11-21T01:42:12.427Z,1006.01
2017-11-21T01:43:12.445Z,1005.93
2017-11-21T01:44:12.459Z,1006.01
2017-11-21T01:45:12.472Z,1005.96
2017-11-21T01:46:12.487Z,1005.97
2017-11-21T01:47:12.509Z,1005.97
2017-11-21T01:48:12.535Z,1005.97
2017-11-21T01:49:12.540Z,1005.95
2017-11-21T01:50:12.553Z,1005.92
2017-11-21T01:51:12.570Z,1005.92
2017-11-21T01:52:12.593Z,1005.95
2017-11-21T01:53:12.603Z,1005.93
2017-11-21T01:54:12.621Z,1005.93
2017-11-21T01:55:12.633Z,1005.9
2017-11-21T01:57:12.668Z,1005.88
2017-11-21T01:58:12.683Z,1005.87
2017-11-21T01:59:12.704Z,1005.88
2017-11-21T02:00:12.719Z,1005.89
2017-11-21T02:01:12.734Z,1005.92
2017-11-21T02:02:12.754Z,1005.92
2017-11-21T02:03:12.776Z,1005.93
2017-11-21T02:04:12.777Z,1005.89
2017-11-21T02:05:12.798Z,1005.88
2017-11-21T02:06:12.816Z,1005.88
2017-11-21T02:07:12.830Z,1005.86
2017-11-21T02:08:12.845Z,1005.83
2017-11-21T02:09:12.860Z,1005.81
2017-11-21T02:10:12.882Z,1005.81
2017-11-21T02:11:12.894Z,1005.78
2017-11-21T02:13:12.928Z,1005.78
2017-11-21T02:14:12.953Z,1005.79
2017-11-21T02:15:12.955Z,1005.79
2017-11-21T02:16:12.976Z,1005.77
2017-11-21T02:17:12.991Z,1005.78
2017-11-21T02:18:13.002Z,1005.82
2017-11-21T02:19:13.022Z,1005.71
2017-11-21T02:20:13.042Z,1005.73
2017-11-21T02:21:13.058Z,1005.71
2017-11-21T02:22:13.077Z,1005.69
2017-11-21T02:23:13.109Z,1005.68
2017-11-21T02:24:13.101Z,1005.67
2017-11-21T02:25:13.115Z,1005.65
2017-11-21T02:26:13.133Z,1005.62
2017-11-21T02:28:13.172Z,1005.61
2017-11-21T02:29:13.183Z,1005.61
2017-11-21T02:30:13.200Z,1005.55
2017-11-21T02:31:13.217Z,1005.49
2017-11-21T02:32:13.235Z,1005.53
2017-11-21T02:33:13.265Z,1005.47
2017-11-21T02:34:13.265Z,1005.45
2017-11-21T02:35:13.280Z,1005.48
2017-11-21T02:36:13.300Z,1005.51
2017-11-21T02:37:13.318Z,1005.56
2017-11-21T02:38:13.336Z,1005.52
2017-11-21T02:39:13.343Z,1005.58
2017-11-21T02:40:13.364Z,1005.56
2017-11-21T02:41:13.379Z,1005.62
2017-11-21T02:42:13.395Z,1005.57
2017-11-21T02:43:13.416Z,1005.61
2017-11-21T02:44:13.430Z,1005.62
2017-11-21T02:45:13.444Z,1005.63
2017-11-21T02:46:13.456Z,1005.54
2017-11-21T02:47:13.471Z,1005.56
2017-11-21T02:48:13.486Z,1005.53
2017-11-21T02:49:13.508Z,1005.54
2017-11-21T02:50:13.521Z,1005.54
2017-11-21T02:51:13.532Z,1005.56
2017-11-21T02:52:13.554Z,1005.54
2017-11-21T02:53:13.566Z,1005.54
2017-11-21T02:54:13.587Z,1005.53
2017-11-21T02:55:13.603Z,1005.5
2017-11-21T02:56:13.617Z,1005.47
2017-11-21T02:57:13.637Z,1005.44
2017-11-21T02:58:13.648Z,1005.42
2017-11-21T03:00:13.679Z,1005.39
2017-11-21T03:01:13.695Z,1005.38
2017-11-21T03:02:13.710Z,1005.36
2017-11-21T03:03:13.730Z,1005.38
2017-11-21T03:04:13.750Z,1005.37
2017-11-21T03:05:13.759Z,1005.41
2017-11-21T03:06:13.777Z,1005.48
2017-11-21T03:07:13.792Z,1005.47
2017-11-21T03:08:13.816Z,1005.49
2017-11-21T03:09:13.832Z,1005.52
2017-11-21T03:10:13.838Z,1005.54
2017-11-21T03:11:13.861Z,1005.57
2017-11-21T03:12:13.879Z,1005.54
2017-11-21T03:13:13.885Z,1005.51
2017-11-21T03:14:13.908Z,1005.47
2017-11-21T03:16:13.939Z,1005.47
2017-11-21T03:17:13.966Z,1005.49
2017-11-21T03:18:13.964Z,1005.54
2017-11-21T03:19:13.987Z,1005.58
2017-11-21T03:20:14.004Z,1005.62
2017-11-21T03:21:14.022Z,1005.6
2017-11-21T03:22:14.028Z,1005.59
2017-11-21T03:23:14.051Z,1005.58
2017-11-21T03:24:14.067Z,1005.59
2017-11-21T03:25:14.084Z,1005.58
2017-11-21T03:26:14.097Z,1005.52
2017-11-21T03:27:14.111Z,1005.45
2017-11-21T03:28:14.124Z,1005.41
2017-11-21T03:29:14.149Z,1005.39
2017-11-21T03:30:14.160Z,1005.38
2017-11-21T03:32:14.192Z,1005.38
2017-11-21T03:33:14.222Z,1005.4
2017-11-21T03:34:14.232Z,1005.36
2017-11-21T03:35:14.241Z,1005.36
2017-11-21T03:36:14.263Z,1005.34
2017-11-21T03:37:14.269Z,1005.38
2017-11-21T03:38:14.286Z,1005.35
2017-11-21T03:39:14.308Z,1005.32
2017-11-21T03:40:14.330Z,1005.33
2017-11-21T03:41:14.336Z,1005.31
2017-11-21T03:42:14.353Z,1005.37
2017-11-21T03:43:14.372Z,1005.36
2017-11-21T03:44:14.388Z,1005.34
2017-11-21T03:45:14.404Z,1005.35
2017-11-21T03:46:14.416Z,1005.35
2017-11-21T03:48:14.456Z,1005.34
2017-11-21T03:49:14.469Z,1005.33
2017-11-21T03:50:14.481Z,1005.33
2017-11-21T03:51:14.498Z,1005.33
2017-11-21T03:52:14.514Z,1005.3
2017-11-21T03:53:14.544Z,1005.31
2017-11-21T03:54:14.552Z,1005.27
2017-11-21T03:55:14.566Z,1005.26
2017-11-21T03:56:14.573Z,1005.22
2017-11-21T03:57:14.590Z,1005.2
2017-11-21T03:58:14.612Z,1005.22
2017-11-21T03:59:14.628Z,1005.22
2017-11-21T04:00:14.646Z,1005.19
2017-11-21T04:01:14.657Z,1005.16
2017-11-21T04:03:14.695Z,1005.12
2017-11-21T04:04:14.708Z,1005.08
2017-11-21T04:05:14.721Z,1005.1
2017-11-21T04:06:14.739Z,1005.05
2017-11-21T04:07:14.758Z,1005.02
2017-11-21T04:08:14.779Z,1005.02
2017-11-21T04:09:14.802Z,1005.01
2017-11-21T04:10:14.804Z,1005.02
2017-11-21T04:11:14.821Z,1005.04
2017-11-21T04:12:14.836Z,1005.06
2017-11-21T04:13:14.850Z,1005.06
2017-11-21T04:14:14.871Z,1005.05
2017-11-21T04:15:14.881Z,1005.03
2017-11-21T04:16:14.898Z,1004.99
2017-11-21T04:17:14.919Z,1005.03
2017-11-21T04:18:14.930Z,1005.07
2017-11-21T04:19:15.046Z,1005.08
2017-11-21T04:20:14.960Z,1005.13
2017-11-21T04:21:14.980Z,1005.13
2017-11-21T04:22:14.998Z,1005.25
2017-11-21T04:23:15.010Z,1005.26
2017-11-21T04:24:15.030Z,1005.31
2017-11-21T04:25:15.043Z,1005.27
2017-11-21T04:26:15.064Z,1005.3
2017-11-21T04:27:15.076Z,1005.28
2017-11-21T04:28:15.088Z,1005.28
2017-11-21T04:29:15.103Z,1005.29
2017-11-21T04:30:15.117Z,1005.24
2017-11-21T04:31:15.138Z,1005.26
2017-11-21T04:32:15.156Z,1005.35
2017-11-21T04:33:15.172Z,1005.39
2017-11-21T04:35:15.199Z,1005.42
2017-11-21T04:36:15.220Z,1005.42
2017-11-21T04:37:15.238Z,1005.48
2017-11-21T04:38:15.249Z,1005.44
2017-11-21T04:39:15.269Z,1005.46
2017-11-21T04:40:15.285Z,1005.46
2017-11-21T04:41:15.297Z,1005.46
2017-11-21T04:42:15.319Z,1005.48
2017-11-21T04:43:15.331Z,1005.46
2017-11-21T04:44:15.348Z,1005.43
2017-11-21T04:45:15.356Z,1005.42
2017-11-21T04:46:15.380Z,1005.47
2017-11-21T04:47:15.394Z,1005.43
2017-11-21T04:48:15.429Z,1005.44
2017-11-21T04:49:15.425Z,1005.48
2017-11-21T04:51:15.458Z,1005.47
2017-11-21T04:52:15.478Z,1005.49
2017-11-21T04:53:15.509Z,1005.44
2017-11-21T04:54:15.519Z,1005.41
2017-11-21T04:55:15.525Z,1005.4
2017-11-21T04:56:15.549Z,1005.35
2017-11-21T04:57:15.568Z,1005.38
2017-11-21T04:58:15.569Z,1005.37
2017-11-21T04:59:15.596Z,1005.34
2017-11-21T05:00:15.603Z,1005.35
2017-11-21T05:01:15.620Z,1005.32
2017-11-21T05:02:15.640Z,1005.35
2017-11-21T05:03:15.651Z,1005.33
2017-11-21T05:04:15.666Z,1005.28
2017-11-21T05:05:15.688Z,1005.32
2017-11-21T05:07:15.718Z,1005.26
2017-11-21T05:08:15.736Z,1005.28
2017-11-21T05:09:15.744Z,1005.23
2017-11-21T05:10:15.765Z,1005.27
2017-11-21T05:11:15.778Z,1005.23
2017-11-21T05:12:15.798Z,1005.22
2017-11-21T05:13:15.812Z,1005.21
2017-11-21T05:14:15.823Z,1005.21
2017-11-21T05:15:15.842Z,1005.19
2017-11-21T05:16:15.856Z,1005.17
2017-11-21T05:17:15.872Z,1005.15
2017-11-21T05:18:15.895Z,1005.15
2017-11-21T05:19:15.905Z,1005.16
2017-11-21T05:20:15.926Z,1005.14
2017-11-21T05:21:15.935Z,1005.14
2017-11-21T05:23:15.975Z,1005.12
2017-11-21T05:24:16.001Z,1005.09
2017-11-21T05:25:15.999Z,1005.11
2017-11-21T05:26:16.026Z,1005.04
2017-11-21T05:27:16.034Z,1005.05
2017-11-21T05:28:16.048Z,1005.06
2017-11-21T05:29:16.063Z,1005.01
2017-11-21T05:30:16.084Z,1005.02
2017-11-21T05:31:16.104Z,1004.96
2017-11-21T05:32:16.117Z,1004.96
2017-11-21T05:33:16.130Z,1004.99
2017-11-21T05:34:16.152Z,1004.99
2017-11-21T05:35:16.165Z,1004.98
2017-11-21T05:36:16.177Z,1004.96
2017-11-21T05:38:16.210Z,1004.97
2017-11-21T05:39:16.228Z,1004.94
2017-11-21T05:40:16.240Z,1004.89
2017-11-21T05:41:16.257Z,1004.89
2017-11-21T05:42:16.276Z,1004.87
2017-11-21T05:43:16.296Z,1004.8
2017-11-21T05:44:16.311Z,1004.76
2017-11-21T05:45:16.323Z,1004.79
2017-11-21T05:46:16.337Z,1004.74
2017-11-21T05:47:16.354Z,1004.76
2017-11-21T05:48:16.370Z,1004.72
2017-11-21T05:49:16.390Z,1004.72
2017-11-21T05:50:16.399Z,1004.71
2017-11-21T05:51:16.411Z,1004.76
2017-11-21T05:52:16.435Z,1004.75
2017-11-21T05:53:16.449Z,1004.79
2017-11-21T05:54:16.467Z,1004.81
2017-11-21T05:55:16.485Z,1004.81
2017-11-21T05:56:16.495Z,1004.76
2017-11-21T05:57:16.511Z,1004.83
2017-11-21T05:58:16.532Z,1004.79
2017-11-21T05:59:16.550Z,1004.78
2017-11-21T06:00:16.563Z,1004.79
2017-11-21T06:01:16.582Z,1004.79
2017-11-21T06:02:16.591Z,1004.76
2017-11-21T06:03:16.617Z,1004.76
2017-11-21T06:04:16.633Z,1004.78
2017-11-21T06:05:16.649Z,1004.78
2017-11-21T06:06:16.661Z,1004.79
2017-11-21T06:07:16.674Z,1004.76
2017-11-21T06:08:16.697Z,1004.78
2017-11-21T06:10:16.726Z,1004.75
2017-11-21T06:11:16.742Z,1004.69
2017-11-21T06:12:16.755Z,1004.71
2017-11-21T06:13:16.765Z,1004.71
2017-11-21T06:14:16.781Z,1004.75
2017-11-21T06:15:16.802Z,1004.76
2017-11-21T06:16:16.814Z,1004.73
2017-11-21T06:17:16.828Z,1004.75
2017-11-21T06:18:16.847Z,1004.77
2017-11-21T06:19:16.868Z,1004.79
2017-11-21T06:20:16.888Z,1004.78
2017-11-21T06:21:16.901Z,1004.84
2017-11-21T06:22:16.920Z,1004.81
2017-11-21T06:23:16.930Z,1004.82
2017-11-21T06:24:16.944Z,1004.84
2017-11-21T06:26:16.978Z,1004.9
2017-11-21T06:27:16.996Z,1004.88
2017-11-21T06:28:17.010Z,1004.9
2017-11-21T06:29:17.024Z,1004.89
2017-11-21T06:30:17.036Z,1004.9
2017-11-21T06:31:17.055Z,1004.94
2017-11-21T06:32:17.069Z,1004.92
2017-11-21T06:33:17.083Z,1004.89
2017-11-21T06:34:17.101Z,1004.9
2017-11-21T06:35:17.115Z,1004.88
2017-11-21T06:36:17.138Z,1004.89
2017-11-21T06:37:17.155Z,1004.9
2017-11-21T06:38:17.172Z,1004.89
2017-11-21T06:39:17.188Z,1004.93
2017-11-21T06:40:17.197Z,1004.91
2017-11-21T06:42:17.237Z,1004.93
2017-11-21T06:43:17.252Z,1004.94
2017-11-21T06:44:17.266Z,1004.94
2017-11-21T06:45:17.275Z,1004.91
2017-11-21T06:46:17.296Z,1004.88
2017-11-21T06:47:17.309Z,1004.87
2017-11-21T06:48:17.328Z,1004.9
2017-11-21T06:49:17.338Z,1004.91
2017-11-21T06:50:17.358Z,1004.93
2017-11-21T06:51:17.384Z,1004.93
2017-11-21T06:52:17.385Z,1004.99
2017-11-21T06:53:17.408Z,1004.96
2017-11-21T06:54:17.426Z,1004.95
2017-11-21T06:55:17.440Z,1004.94
2017-11-21T06:56:17.449Z,1004.91
2017-11-21T06:58:17.497Z,1004.91
2017-11-21T06:59:17.514Z,1004.87
2017-11-21T07:00:17.520Z,1004.9
2017-11-21T07:01:17.529Z,1004.92
2017-11-21T07:02:17.557Z,1004.89
2017-11-21T07:03:17.566Z,1004.85
2017-11-21T07:04:17.582Z,1004.87
2017-11-21T07:05:17.603Z,1004.91
2017-11-21T07:06:17.615Z,1004.94
2017-11-21T07:07:17.634Z,1004.95
2017-11-21T07:08:17.648Z,1004.94
2017-11-21T07:09:17.663Z,1004.96
2017-11-21T07:10:17.681Z,1004.98
2017-11-21T07:11:17.693Z,1004.95
2017-11-21T07:13:17.733Z,1004.97
2017-11-21T07:14:17.747Z,1004.99
2017-11-21T07:15:17.763Z,1004.97
2017-11-21T07:16:17.772Z,1004.98
2017-11-21T07:17:17.790Z,1005.01
2017-11-21T07:18:17.798Z,1004.99
2017-11-21T07:19:17.813Z,1005.06
2017-11-21T07:20:17.835Z,1005.04
2017-11-21T07:21:17.848Z,1005.1
2017-11-21T07:22:17.861Z,1005.06
2017-11-21T07:23:17.883Z,1005.08
2017-11-21T07:24:17.901Z,1005.09
2017-11-21T07:25:17.910Z,1005.13
2017-11-21T07:26:17.926Z,1005.12
2017-11-21T07:27:17.949Z,1005.12
2017-11-21T07:28:17.961Z,1005.14
2017-11-21T07:29:17.977Z,1005.16
2017-11-21T07:30:17.997Z,1005.15
2017-11-21T07:31:18.010Z,1005.17
2017-11-21T07:32:18.022Z,1005.22
2017-11-21T07:33:18.037Z,1005.2
2017-11-21T07:34:18.057Z,1005.19
2017-11-21T07:35:18.070Z,1005.18
2017-11-21T07:36:18.085Z,1005.2
2017-11-21T07:37:18.103Z,1005.19
2017-11-21T07:38:18.120Z,1005.24
2017-11-21T07:39:18.142Z,1005.21
2017-11-21T07:40:18.150Z,1005.23
2017-11-21T07:41:18.170Z,1005.2
2017-11-21T07:42:18.182Z,1005.21
2017-11-21T07:43:18.204Z,1005.2
2017-11-21T07:45:18.235Z,1005.23
2017-11-21T07:46:18.246Z,1005.2
2017-11-21T07:47:18.266Z,1005.21
2017-11-21T07:48:18.278Z,1005.17
2017-11-21T07:49:18.300Z,1005.19
2017-11-21T07:50:18.313Z,1005.22
2017-11-21T07:51:18.328Z,1005.19
2017-11-21T07:52:18.348Z,1005.2
2017-11-21T07:53:18.359Z,1005.2
2017-11-21T07:54:18.386Z,1005.16
2017-11-21T07:55:18.392Z,1005.14
2017-11-21T07:56:18.411Z,1005.19
2017-11-21T07:57:18.424Z,1005.16
2017-11-21T07:58:18.443Z,1005.16
2017-11-21T07:59:18.556Z,1005.17
2017-11-21T08:01:18.492Z,1005.16
2017-11-21T08:02:18.507Z,1005.16
2017-11-21T08:03:18.520Z,1005.08
2017-11-21T08:04:18.550Z,1005.11
2017-11-21T08:05:18.555Z,1005.09
2017-11-21T08:06:18.569Z,1005.09
2017-11-21T08:07:18.588Z,1005.06
2017-11-21T08:08:18.605Z,1005.06
2017-11-21T08:09:18.616Z,1005.06
2017-11-21T08:10:18.636Z,1005.04
2017-11-21T08:11:18.653Z,1005.05
2017-11-21T08:12:18.666Z,1005.06
2017-11-21T08:13:18.684Z,1005.09
2017-11-21T08:14:18.710Z,1005.06
2017-11-21T08:15:18.714Z,1005.07
2017-11-21T08:17:18.746Z,1005.02
2017-11-21T08:18:18.765Z,1005.11
2017-11-21T08:19:18.782Z,1005.12
2017-11-21T08:20:18.794Z,1005.13
2017-11-21T08:21:18.815Z,1005.13
2017-11-21T08:22:18.828Z,1005.16
2017-11-21T08:23:18.852Z,1005.16
2017-11-21T08:24:18.864Z,1005.16
2017-11-21T08:25:18.877Z,1005.19
2017-11-21T08:26:18.896Z,1005.19
2017-11-21T08:27:18.922Z,1005.19
2017-11-21T08:28:18.925Z,1005.19
2017-11-21T08:29:18.941Z,1005.21
2017-11-21T08:30:18.959Z,1005.19
2017-11-21T08:31:18.976Z,1005.24
2017-11-21T08:33:19.007Z,1005.23
2017-11-21T08:34:19.023Z,1005.25
2017-11-21T08:35:19.044Z,1005.28
2017-11-21T08:36:19.058Z,1005.27
2017-11-21T08:37:19.071Z,1005.27
2017-11-21T08:38:19.091Z,1005.25
2017-11-21T08:39:19.105Z,1005.28
2017-11-21T08:40:19.123Z,1005.28
2017-11-21T08:41:19.136Z,1005.26
2017-11-21T08:42:19.155Z,1005.29
2017-11-21T08:43:19.173Z,1005.27
2017-11-21T08:44:19.187Z,1005.25
2017-11-21T08:45:19.202Z,1005.29
2017-11-21T08:46:19.230Z,1005.27
2017-11-21T08:48:19.255Z,1005.26
2017-11-21T08:49:19.267Z,1005.24
2017-11-21T08:50:19.286Z,1005.29
2017-11-21T08:51:19.305Z,1005.26
2017-11-21T08:52:19.320Z,1005.28
2017-11-21T08:53:19.334Z,1005.28
2017-11-21T08:54:19.349Z,1005.26
2017-11-21T08:55:19.367Z,1005.29
2017-11-21T08:56:19.379Z,1005.27
2017-11-21T08:57:19.402Z,1005.28
2017-11-21T08:58:19.417Z,1005.31
2017-11-21T08:59:19.433Z,1005.3
2017-11-21T09:00:19.446Z,1005.28
2017-11-21T09:01:19.465Z,1005.32
2017-11-21T09:02:19.478Z,1005.3
2017-11-21T09:03:19.498Z,1005.29
2017-11-21T09:04:19.514Z,1005.27
2017-11-21T09:05:19.527Z,1005.28
2017-11-21T09:06:19.544Z,1005.29
2017-11-21T09:07:19.563Z,1005.3
2017-11-21T09:08:19.578Z,1005.3
2017-11-21T09:09:19.592Z,1005.33
2017-11-21T09:10:19.609Z,1005.35
2017-11-21T09:11:19.627Z,1005.39
2017-11-21T09:12:19.644Z,1005.39
2017-11-21T09:13:19.657Z,1005.42
2017-11-21T09:14:19.678Z,1005.41
2017-11-21T09:15:19.693Z,1005.39
2017-11-21T09:16:19.709Z,1005.41
2017-11-21T09:17:19.723Z,1005.45
2017-11-21T09:18:19.741Z,1005.44
2017-11-21T09:20:19.774Z,1005.4
2017-11-21T09:21:19.789Z,1005.45
2017-11-21T09:22:19.808Z,1005.45
2017-11-21T09:23:19.822Z,1005.46
2017-11-21T09:24:19.838Z,1005.45
2017-11-21T09:25:19.858Z,1005.44
2017-11-21T09:26:19.870Z,1005.46
2017-11-21T09:27:19.890Z,1005.44
2017-11-21T09:28:19.907Z,1005.45
2017-11-21T09:29:19.921Z,1005.46
2017-11-21T09:30:19.937Z,1005.45
2017-11-21T09:31:19.953Z,1005.44
2017-11-21T09:32:19.971Z,1005.45
2017-11-21T09:33:19.988Z,1005.42
2017-11-21T09:34:20.005Z,1005.45
2017-11-21T09:36:20.034Z,1005.46
2017-11-21T09:37:20.052Z,1005.4
2017-11-21T09:38:20.067Z,1005.43
2017-11-21T09:39:20.082Z,1005.38
2017-11-21T09:40:20.101Z,1005.35
2017-11-21T09:41:20.115Z,1005.39
2017-11-21T09:42:20.132Z,1005.38
2017-11-21T09:43:20.150Z,1005.38
2017-11-21T09:44:20.164Z,1005.43
2017-11-21T09:45:20.182Z,1005.39
2017-11-21T09:46:20.199Z,1005.41
2017-11-21T09:47:20.216Z,1005.48
2017-11-21T09:48:20.234Z,1005.48
2017-11-21T09:49:20.248Z,1005.49
2017-11-21T09:50:20.269Z,1005.49
2017-11-21T09:52:20.301Z,1005.52
2017-11-21T09:53:20.318Z,1005.53
2017-11-21T09:54:20.331Z,1005.53
2017-11-21T09:55:20.347Z,1005.52
2017-11-21T09:56:20.363Z,1005.42
2017-11-21T09:57:20.384Z,1005.41
2017-11-21T09:58:20.399Z,1005.41
2017-11-21T09:59:20.420Z,1005.43
2017-11-21T10:00:20.430Z,1005.39
2017-11-21T10:01:20.452Z,1005.47
2017-11-21T10:02:20.463Z,1005.46
2017-11-21T10:03:20.484Z,1005.37
2017-11-21T10:04:20.497Z,1005.37
2017-11-21T10:05:20.514Z,1005.36
2017-11-21T10:06:20.529Z,1005.35
2017-11-21T10:08:20.562Z,1005.37
2017-11-21T10:09:20.583Z,1005.35
2017-11-21T10:10:20.596Z,1005.33
2017-11-21T10:11:20.615Z,1005.33
2017-11-21T10:12:20.633Z,1005.27
2017-11-21T10:13:20.645Z,1005.3
2017-11-21T10:14:20.662Z,1005.33
2017-11-21T10:15:20.682Z,1005.32
2017-11-21T10:16:20.702Z,1005.32
2017-11-21T10:17:20.712Z,1005.33
2017-11-21T10:18:20.732Z,1005.34
2017-11-21T10:19:20.746Z,1005.32
2017-11-21T10:20:20.763Z,1005.34
2017-11-21T10:21:20.783Z,1005.33
2017-11-21T10:23:20.817Z,1005.33
2017-11-21T10:24:20.828Z,1005.34
2017-11-21T10:25:20.847Z,1005.34
2017-11-21T10:26:20.862Z,1005.33
2017-11-21T10:27:20.882Z,1005.34
2017-11-21T10:28:20.901Z,1005.37
2017-11-21T10:29:20.913Z,1005.38
2017-11-21T10:30:20.930Z,1005.4
2017-11-21T10:31:20.958Z,1005.43
2017-11-21T10:32:20.994Z,1005.46
2017-11-21T10:33:20.985Z,1005.41
2017-11-21T10:34:20.999Z,1005.44
2017-11-21T10:35:21.017Z,1005.41
2017-11-21T10:36:21.044Z,1005.4
2017-11-21T10:37:21.048Z,1005.36
2017-11-21T10:38:21.065Z,1005.44
2017-11-21T10:39:21.085Z,1005.36
2017-11-21T10:40:21.109Z,1005.43
2017-11-21T10:41:21.116Z,1005.44
2017-11-21T10:42:21.133Z,1005.44
2017-11-21T10:43:21.155Z,1005.4
2017-11-21T10:44:21.178Z,1005.41
2017-11-21T10:45:21.189Z,1005.38
2017-11-21T10:46:21.209Z,1005.34
2017-11-21T10:47:21.217Z,1005.36
2017-11-21T10:48:21.235Z,1005.36
2017-11-21T10:49:21.278Z,1005.36
2017-11-21T10:50:21.274Z,1005.4
2017-11-21T10:51:21.293Z,1005.37
2017-11-21T10:52:21.309Z,1005.37
2017-11-21T10:53:21.326Z,1005.39
2017-11-21T10:55:21.361Z,1005.37
2017-11-21T10:56:21.377Z,1005.41
2017-11-21T10:57:21.386Z,1005.39
2017-11-21T10:58:21.410Z,1005.39
2017-11-21T10:59:21.427Z,1005.43
2017-11-21T11:00:21.445Z,1005.41
2017-11-21T11:01:21.461Z,1005.39
2017-11-21T11:02:21.471Z,1005.38
2017-11-21T11:03:21.490Z,1005.37
2017-11-21T11:04:21.512Z,1005.38
2017-11-21T11:05:21.521Z,1005.35
2017-11-21T11:06:21.540Z,1005.35
2017-11-21T11:07:21.563Z,1005.33
2017-11-21T11:08:21.573Z,1005.34
2017-11-21T11:09:21.597Z,1005.36
2017-11-21T11:11:21.631Z,1005.38
2017-11-21T11:12:21.642Z,1005.38
2017-11-21T11:13:21.683Z,1005.36
2017-11-21T11:14:21.676Z,1005.35
2017-11-21T11:15:21.691Z,1005.35
2017-11-21T11:16:21.709Z,1005.35
2017-11-21T11:17:21.732Z,1005.38
2017-11-21T11:18:21.744Z,1005.33
2017-11-21T11:19:21.759Z,1005.3
2017-11-21T11:20:21.777Z,1005.27
2017-11-21T11:21:21.801Z,1005.25
2017-11-21T11:22:21.810Z,1005.27
2017-11-21T11:23:21.828Z,1005.29
2017-11-21T11:24:21.851Z,1005.25
2017-11-21T11:25:21.868Z,1005.26
2017-11-21T11:27:21.903Z,1005.28
2017-11-21T11:28:21.913Z,1005.25
2017-11-21T11:29:21.936Z,1005.27
2017-11-21T11:30:21.948Z,1005.24
2017-11-21T11:31:21.964Z,1005.26
2017-11-21T11:32:21.981Z,1005.23
2017-11-21T11:33:22.010Z,1005.23
2017-11-21T11:34:22.016Z,1005.21
2017-11-21T11:35:22.034Z,1005.24
2017-11-21T11:36:22.050Z,1005.14
2017-11-21T11:37:22.072Z,1005.14
2017-11-21T11:38:22.084Z,1005.15
2017-11-21T11:39:22.101Z,1005.12
2017-11-21T11:40:22.119Z,1005.16
2017-11-21T11:41:22.134Z,1005.13
2017-11-21T11:43:22.176Z,1005.17
2017-11-21T11:44:22.194Z,1005.16
2017-11-21T11:45:22.212Z,1005.14
2017-11-21T11:46:22.221Z,1005.1
2017-11-21T11:47:22.246Z,1005.11
2017-11-21T11:48:22.255Z,1005.12
2017-11-21T11:49:22.278Z,1005.08
2017-11-21T11:50:22.289Z,1005.08
2017-11-21T11:51:22.307Z,1005.07
2017-11-21T11:52:22.331Z,1005.08
2017-11-21T11:53:22.341Z,1005
2017-11-21T11:54:22.365Z,1005.01
2017-11-21T11:55:22.382Z,1004.98
2017-11-21T11:56:22.393Z,1004.97
2017-11-21T11:58:22.429Z,1004.96
2017-11-21T11:59:22.452Z,1004.94
2017-11-21T12:00:22.469Z,1004.88
2017-11-21T12:01:22.487Z,1004.91
2017-11-21T12:02:22.497Z,1004.93
2017-11-21T12:03:22.521Z,1004.89
2017-11-21T12:04:22.550Z,1004.89
2017-11-21T12:05:22.550Z,1004.84
2017-11-21T12:06:22.575Z,1004.83
2017-11-21T12:07:22.582Z,1004.83
2017-11-21T12:08:22.608Z,1004.81
2017-11-21T12:09:22.623Z,1004.84
2017-11-21T12:10:22.634Z,1004.9
2017-11-21T12:11:22.658Z,1004.91
2017-11-21T12:12:22.670Z,1004.86
2017-11-21T12:13:22.687Z,1004.9
2017-11-21T12:14:22.704Z,1004.88
2017-11-21T12:15:22.822Z,1004.87
2017-11-21T12:16:22.739Z,1004.86
2017-11-21T12:17:22.755Z,1004.89
2017-11-21T12:18:22.772Z,1004.91
2017-11-21T12:19:22.796Z,1004.97
2017-11-21T12:20:22.908Z,1004.98
2017-11-21T12:21:22.824Z,1005
2017-11-21T12:22:22.842Z,1005.04
2017-11-21T12:23:22.865Z,1005
2017-11-21T12:24:22.878Z,1005.03
2017-11-21T12:25:22.894Z,1005.05
2017-11-21T12:26:22.914Z,1005.1
2017-11-21T12:27:22.927Z,1005.08
2017-11-21T12:28:22.952Z,1005.1
2017-11-21T12:30:22.980Z,1005.1
2017-11-21T12:31:23.005Z,1005.13
2017-11-21T12:32:23.019Z,1005.17
2017-11-21T12:33:23.038Z,1005.15
2017-11-21T12:34:23.055Z,1005.19
2017-11-21T12:35:23.074Z,1005.2
2017-11-21T12:36:23.082Z,1005.21
2017-11-21T12:37:23.099Z,1005.23
2017-11-21T12:38:23.119Z,1005.22
2017-11-21T12:39:23.141Z,1005.17
2017-11-21T12:40:23.150Z,1005.17
2017-11-21T12:41:23.175Z,1005.17
2017-11-21T12:42:23.189Z,1005.17
2017-11-21T12:43:23.202Z,1005.16
2017-11-21T12:44:23.227Z,1005.18
2017-11-21T12:46:23.261Z,1005.19
2017-11-21T12:47:23.271Z,1005.18
2017-11-21T12:48:23.295Z,1005.21